sensor_id;sensor_type;location;lat;lon;timestamp;pressure;altitude;pressure_sealevel;temperature;humidity
15678;BME280;7939;50.814;6.368;2022-09-17T00:01:24;99630.91;;;16.95;56.53
15678;BME280;7939;50.814;6.368;2022-09-17T00:03:54;99634.34;;;16.96;57.08
15678;BME280;7939;50.814;6.368;2022-09-17T00:06:23;99628.59;;;16.86;57.08
15678;BME280;7939;50.814;6.368;2022-09-17T00:08:50;99626.09;;;16.83;56.91
15678;BME280;7939;50.814;6.368;2022-09-17T00:11:20;99627.00;;;16.82;57.20
15678;BME280;7939;50.814;6.368;2022-09-17T00:13:49;99627.72;;;16.87;57.20
15678;BME280;7939;50.814;6.368;2022-09-17T00:16:23;99621.66;;;16.88;56.73
15678;BME280;7939;50.814;6.368;2022-09-17T00:18:50;99629.53;;;16.84;56.79
15678;BME280;7939;50.814;6.368;2022-09-17T00:21:17;99628.47;;;16.91;56.89
15678;BME280;7939;50.814;6.368;2022-09-17T00:23:46;99629.56;;;16.82;56.93
15678;BME280;7939;50.814;6.368;2022-09-17T00:26:13;99633.25;;;16.74;57.31
15678;BME280;7939;50.814;6.368;2022-09-17T00:28:39;99629.69;;;16.78;57.40
15678;BME280;7939;50.814;6.368;2022-09-17T00:31:09;99634.78;;;16.81;57.42
15678;BME280;7939;50.814;6.368;2022-09-17T00:33:36;99630.50;;;16.80;57.48
15678;BME280;7939;50.814;6.368;2022-09-17T00:36:04;99631.31;;;16.82;57.17
15678;BME280;7939;50.814;6.368;2022-09-17T00:38:31;99640.72;;;16.83;56.78
15678;BME280;7939;50.814;6.368;2022-09-17T00:40:59;99637.13;;;16.88;57.12
15678;BME280;7939;50.814;6.368;2022-09-17T00:43:33;99644.81;;;16.91;57.33
15678;BME280;7939;50.814;6.368;2022-09-17T00:46:00;99640.50;;;16.92;57.17
15678;BME280;7939;50.814;6.368;2022-09-17T00:48:27;99641.28;;;16.94;56.95
15678;BME280;7939;50.814;6.368;2022-09-17T00:50:55;99644.81;;;16.91;56.89
15678;BME280;7939;50.814;6.368;2022-09-17T00:53:23;99647.34;;;16.93;57.07
15678;BME280;7939;50.814;6.368;2022-09-17T00:55:53;99648.31;;;16.89;57.16
15678;BME280;7939;50.814;6.368;2022-09-17T00:58:25;99646.56;;;16.89;57.18
15678;BME280;7939;50.814;6.368;2022-09-17T01:00:52;99646.50;;;16.92;56.82
15678;BME280;7939;50.814;6.368;2022-09-17T01:03:19;99646.50;;;16.92;57.45
15678;BME280;7939;50.814;6.368;2022-09-17T01:05:48;99648.19;;;16.93;57.14
15678;BME280;7939;50.814;6.368;2022-09-17T01:08:22;99654.19;;;16.94;57.31
15678;BME280;7939;50.814;6.368;2022-09-17T01:11:11;99649.97;;;16.91;56.89
15678;BME280;7939;50.814;6.368;2022-09-17T01:13:53;99647.34;;;16.93;57.48
15678;BME280;7939;50.814;6.368;2022-09-17T01:16:27;99651.66;;;16.92;57.24
15678;BME280;7939;50.814;6.368;2022-09-17T01:19:08;99648.25;;;16.90;57.53
15678;BME280;7939;50.814;6.368;2022-09-17T01:21:55;99650.72;;;16.95;57.37
15678;BME280;7939;50.814;6.368;2022-09-17T01:24:49;99656.06;;;16.89;57.12
15678;BME280;7939;50.814;6.368;2022-09-17T01:27:53;99660.31;;;16.91;57.42
15678;BME280;7939;50.814;6.368;2022-09-17T01:30:42;99658.63;;;16.89;57.53
15678;BME280;7939;50.814;6.368;2022-09-17T01:33:25;99664.00;;;16.81;57.28
15678;BME280;7939;50.814;6.368;2022-09-17T01:36:04;99664.91;;;16.80;57.16
15678;BME280;7939;50.814;6.368;2022-09-17T01:38:38;99675.28;;;16.77;57.33
15678;BME280;7939;50.814;6.368;2022-09-17T01:41:15;99669.91;;;16.86;57.36
15678;BME280;7939;50.814;6.368;2022-09-17T01:43:47;99669.28;;;16.77;57.31
15678;BME280;7939;50.814;6.368;2022-09-17T01:46:21;99671.72;;;16.83;57.68
15678;BME280;7939;50.814;6.368;2022-09-17T01:48:55;99676.13;;;16.79;57.26
15678;BME280;7939;50.814;6.368;2022-09-17T01:51:25;99684.81;;;16.75;57.12
15678;BME280;7939;50.814;6.368;2022-09-17T01:53:56;99679.72;;;16.74;57.25
15678;BME280;7939;50.814;6.368;2022-09-17T01:56:27;99676.19;;;16.76;57.59
15678;BME280;7939;50.814;6.368;2022-09-17T01:59:00;99679.53;;;16.80;57.65
15678;BME280;7939;50.814;6.368;2022-09-17T02:01:31;99685.50;;;16.82;57.44
15678;BME280;7939;50.814;6.368;2022-09-17T02:04:04;99674.41;;;16.78;57.51
15678;BME280;7939;50.814;6.368;2022-09-17T02:06:36;99677.81;;;16.80;57.35
15678;BME280;7939;50.814;6.368;2022-09-17T02:09:07;99682.13;;;16.80;57.33
15678;BME280;7939;50.814;6.368;2022-09-17T02:11:41;99686.41;;;16.81;57.37
15678;BME280;7939;50.814;6.368;2022-09-17T02:14:12;99682.91;;;16.82;57.45
15678;BME280;7939;50.814;6.368;2022-09-17T02:16:45;99686.34;;;16.82;57.52
15678;BME280;7939;50.814;6.368;2022-09-17T02:19:17;99683.03;;;16.79;57.61
15678;BME280;7939;50.814;6.368;2022-09-17T02:21:52;99676.13;;;16.79;57.49
15678;BME280;7939;50.814;6.368;2022-09-17T02:24:25;99680.78;;;16.63;58.02
15678;BME280;7939;50.814;6.368;2022-09-17T02:26:59;99683.81;;;16.81;57.87
15678;BME280;7939;50.814;6.368;2022-09-17T02:29:37;99690.63;;;16.83;57.52
15678;BME280;7939;50.814;6.368;2022-09-17T02:32:06;99684.59;;;16.83;57.16
15678;BME280;7939;50.814;6.368;2022-09-17T02:34:33;99694.19;;;16.79;57.41
15678;BME280;7939;50.814;6.368;2022-09-17T02:37:00;99687.13;;;16.84;57.48
15678;BME280;7939;50.814;6.368;2022-09-17T02:39:27;99693.19;;;16.83;57.75
15678;BME280;7939;50.814;6.368;2022-09-17T02:42:04;99682.88;;;16.83;57.89
15678;BME280;7939;50.814;6.368;2022-09-17T02:44:37;99691.56;;;16.81;57.57
15678;BME280;7939;50.814;6.368;2022-09-17T02:47:42;99690.66;;;16.82;57.39
15678;BME280;7939;50.814;6.368;2022-09-17T02:50:19;99695.94;;;16.79;57.52
15678;BME280;7939;50.814;6.368;2022-09-17T02:53:01;99704.72;;;16.70;57.29
15678;BME280;7939;50.814;6.368;2022-09-17T02:55:36;99700.25;;;16.77;57.54
15678;BME280;7939;50.814;6.368;2022-09-17T02:58:13;99701.94;;;16.78;57.83
15678;BME280;7939;50.814;6.368;2022-09-17T03:00:46;99704.53;;;16.78;57.59
15678;BME280;7939;50.814;6.368;2022-09-17T03:03:18;99706.09;;;16.83;57.71
15678;BME280;7939;50.814;6.368;2022-09-17T03:05:48;99706.03;;;16.86;57.83
15678;BME280;7939;50.814;6.368;2022-09-17T03:08:16;99706.09;;;16.83;57.38
15678;BME280;7939;50.814;6.368;2022-09-17T03:10:44;99709.53;;;16.84;57.62
15678;BME280;7939;50.814;6.368;2022-09-17T03:13:13;99702.72;;;16.81;57.45
15678;BME280;7939;50.814;6.368;2022-09-17T03:15:40;99701.78;;;16.84;58.08
15678;BME280;7939;50.814;6.368;2022-09-17T03:18:06;99711.16;;;16.88;57.69
15678;BME280;7939;50.814;6.368;2022-09-17T03:20:34;99709.50;;;16.85;57.76
15678;BME280;7939;50.814;6.368;2022-09-17T03:23:01;99706.00;;;16.88;57.96
15678;BME280;7939;50.814;6.368;2022-09-17T03:25:27;99710.31;;;16.87;57.42
15678;BME280;7939;50.814;6.368;2022-09-17T03:27:54;99703.66;;;16.79;57.81
15678;BME280;7939;50.814;6.368;2022-09-17T03:30:20;99709.50;;;16.85;57.63
15678;BME280;7939;50.814;6.368;2022-09-17T03:32:47;99713.78;;;16.86;57.93
15678;BME280;7939;50.814;6.368;2022-09-17T03:35:14;99714.00;;;16.77;57.58
15678;BME280;7939;50.814;6.368;2022-09-17T03:37:42;99700.22;;;16.78;58.08
15678;BME280;7939;50.814;6.368;2022-09-17T03:40:09;99705.34;;;16.80;57.80
15678;BME280;7939;50.814;6.368;2022-09-17T03:42:35;99712.25;;;16.79;57.60
15678;BME280;7939;50.814;6.368;2022-09-17T03:45:02;99703.53;;;16.83;57.68
15678;BME280;7939;50.814;6.368;2022-09-17T03:47:29;99713.06;;;16.81;57.83
15678;BME280;7939;50.814;6.368;2022-09-17T03:49:56;99708.72;;;16.82;57.99
15678;BME280;7939;50.814;6.368;2022-09-17T03:52:22;99714.69;;;16.84;57.81
15678;BME280;7939;50.814;6.368;2022-09-17T03:54:51;99717.31;;;16.82;57.85
15678;BME280;7939;50.814;6.368;2022-09-17T03:57:17;99715.69;;;16.78;57.33
15678;BME280;7939;50.814;6.368;2022-09-17T03:59:44;99707.94;;;16.80;57.91
15678;BME280;7939;50.814;6.368;2022-09-17T04:02:11;99712.94;;;16.84;57.98
15678;BME280;7939;50.814;6.368;2022-09-17T04:04:37;99712.09;;;16.84;57.95
15678;BME280;7939;50.814;6.368;2022-09-17T04:07:04;99706.25;;;16.79;57.60
15678;BME280;7939;50.814;6.368;2022-09-17T04:09:31;99714.75;;;16.82;58.06
15678;BME280;7939;50.814;6.368;2022-09-17T04:11:59;99715.69;;;16.80;58.24
15678;BME280;7939;50.814;6.368;2022-09-17T04:14:25;99720.78;;;16.81;58.18
15678;BME280;7939;50.814;6.368;2022-09-17T04:16:52;99720.75;;;16.83;57.78
15678;BME280;7939;50.814;6.368;2022-09-17T04:19:19;99719.00;;;16.85;57.81
15678;BME280;7939;50.814;6.368;2022-09-17T04:21:45;99719.00;;;16.85;57.79
15678;BME280;7939;50.814;6.368;2022-09-17T04:24:12;99725.06;;;16.82;57.77
15678;BME280;7939;50.814;6.368;2022-09-17T04:26:38;99726.84;;;16.80;57.87
15678;BME280;7939;50.814;6.368;2022-09-17T04:29:06;99725.06;;;16.82;57.93
15678;BME280;7939;50.814;6.368;2022-09-17T04:31:34;99721.56;;;16.85;57.86
15678;BME280;7939;50.814;6.368;2022-09-17T04:34:01;99728.44;;;16.84;58.05
15678;BME280;7939;50.814;6.368;2022-09-17T04:36:28;99725.06;;;16.82;57.95
15678;BME280;7939;50.814;6.368;2022-09-17T04:38:54;99728.59;;;16.78;58.24
15678;BME280;7939;50.814;6.368;2022-09-17T04:41:21;99725.22;;;16.76;57.94
15678;BME280;7939;50.814;6.368;2022-09-17T04:43:47;99734.81;;;16.71;58.00
15678;BME280;7939;50.814;6.368;2022-09-17T04:46:15;99737.22;;;16.79;58.16
15678;BME280;7939;50.814;6.368;2022-09-17T04:48:42;99733.75;;;16.78;57.93
15678;BME280;7939;50.814;6.368;2022-09-17T04:51:08;99733.00;;;16.75;58.04
15678;BME280;7939;50.814;6.368;2022-09-17T04:53:35;99731.16;;;16.80;57.97
15678;BME280;7939;50.814;6.368;2022-09-17T04:56:03;99733.00;;;16.75;58.16
15678;BME280;7939;50.814;6.368;2022-09-17T04:58:29;99739.97;;;16.71;58.00
15678;BME280;7939;50.814;6.368;2022-09-17T05:00:57;99730.44;;;16.75;58.57
15678;BME280;7939;50.814;6.368;2022-09-17T05:03:25;99743.34;;;16.75;58.35
15678;BME280;7939;50.814;6.368;2022-09-17T05:05:52;99724.38;;;16.76;58.19
15678;BME280;7939;50.814;6.368;2022-09-17T05:08:18;99736.44;;;16.75;58.25
15678;BME280;7939;50.814;6.368;2022-09-17T05:10:48;99751.13;;;16.71;58.34
15678;BME280;7939;50.814;6.368;2022-09-17T05:13:15;99745.06;;;16.74;58.37
15678;BME280;7939;50.814;6.368;2022-09-17T05:15:42;99745.34;;;16.62;58.74
15678;BME280;7939;50.814;6.368;2022-09-17T05:18:09;99746.09;;;16.65;58.61
15678;BME280;7939;50.814;6.368;2022-09-17T05:20:37;99745.06;;;16.74;58.34
15678;BME280;7939;50.814;6.368;2022-09-17T05:23:04;99737.31;;;16.74;58.37
15678;BME280;7939;50.814;6.368;2022-09-17T05:25:30;99732.97;;;16.76;58.08
15678;BME280;7939;50.814;6.368;2022-09-17T05:27:57;99746.75;;;16.75;58.13
15678;BME280;7939;50.814;6.368;2022-09-17T05:30:25;99753.59;;;16.76;58.42
15678;BME280;7939;50.814;6.368;2022-09-17T05:32:58;99756.28;;;16.73;58.06
15678;BME280;7939;50.814;6.368;2022-09-17T05:35:24;99736.34;;;16.78;58.23
15678;BME280;7939;50.814;6.368;2022-09-17T05:37:57;99752.75;;;16.76;58.30
15678;BME280;7939;50.814;6.368;2022-09-17T05:40:24;99750.19;;;16.76;58.07
15678;BME280;7939;50.814;6.368;2022-09-17T05:42:50;99751.06;;;16.75;58.03
15678;BME280;7939;50.814;6.368;2022-09-17T05:45:17;99762.28;;;16.74;58.00
15678;BME280;7939;50.814;6.368;2022-09-17T05:47:44;99759.63;;;16.77;58.12
15678;BME280;7939;50.814;6.368;2022-09-17T05:50:10;99764.81;;;16.75;58.16
15678;BME280;7939;50.814;6.368;2022-09-17T05:52:37;99766.63;;;16.71;58.30
15678;BME280;7939;50.814;6.368;2022-09-17T05:55:05;99777.72;;;16.75;58.46
15678;BME280;7939;50.814;6.368;2022-09-17T05:57:32;99776.84;;;16.76;58.15
15678;BME280;7939;50.814;6.368;2022-09-17T05:59:58;99779.47;;;16.75;58.14
15678;BME280;7939;50.814;6.368;2022-09-17T06:02:25;99786.31;;;16.76;58.02
15678;BME280;7939;50.814;6.368;2022-09-17T06:04:51;99795.69;;;16.78;57.95
15678;BME280;7939;50.814;6.368;2022-09-17T06:07:18;99793.94;;;16.80;58.06
15678;BME280;7939;50.814;6.368;2022-09-17T06:09:44;99792.22;;;16.81;58.29
15678;BME280;7939;50.814;6.368;2022-09-17T06:12:12;99802.59;;;16.79;58.07
15678;BME280;7939;50.814;6.368;2022-09-17T06:14:39;99792.28;;;16.78;58.19
15678;BME280;7939;50.814;6.368;2022-09-17T06:17:05;99794.84;;;16.79;57.98
15678;BME280;7939;50.814;6.368;2022-09-17T06:19:32;99793.00;;;16.83;57.96
15678;BME280;7939;50.814;6.368;2022-09-17T06:21:59;99793.13;;;16.78;58.23
15678;BME280;7939;50.814;6.368;2022-09-17T06:24:26;99807.66;;;16.82;58.51
15678;BME280;7939;50.814;6.368;2022-09-17T06:26:53;99805.03;;;16.84;58.29
15678;BME280;7939;50.814;6.368;2022-09-17T06:29:21;99807.91;;;16.73;58.37
15678;BME280;7939;50.814;6.368;2022-09-17T06:31:48;99803.44;;;16.80;58.38
15678;BME280;7939;50.814;6.368;2022-09-17T06:34:14;99795.63;;;16.81;58.32
15678;BME280;7939;50.814;6.368;2022-09-17T06:36:41;99798.16;;;16.83;58.48
15678;BME280;7939;50.814;6.368;2022-09-17T06:39:08;99806.91;;;16.77;58.33
15678;BME280;7939;50.814;6.368;2022-09-17T06:41:36;99810.31;;;16.79;58.17
15678;BME280;7939;50.814;6.368;2022-09-17T06:44:02;99815.50;;;16.78;58.66
15678;BME280;7939;50.814;6.368;2022-09-17T06:46:31;99804.28;;;16.80;58.39
15678;BME280;7939;50.814;6.368;2022-09-17T06:48:57;99821.41;;;16.83;58.73
15678;BME280;7939;50.814;6.368;2022-09-17T06:51:24;99811.13;;;16.81;58.57
15678;BME280;7939;50.814;6.368;2022-09-17T06:53:50;99810.31;;;16.79;58.70
15678;BME280;7939;50.814;6.368;2022-09-17T06:56:17;99818.03;;;16.81;58.37
15678;BME280;7939;50.814;6.368;2022-09-17T06:58:44;99817.19;;;16.80;58.79
15678;BME280;7939;50.814;6.368;2022-09-17T07:01:11;99829.19;;;16.81;58.72
15678;BME280;7939;50.814;6.368;2022-09-17T07:03:40;99822.28;;;16.82;58.41
15678;BME280;7939;50.814;6.368;2022-09-17T07:06:08;99817.09;;;16.83;58.72
15678;BME280;7939;50.814;6.368;2022-09-17T07:08:35;99814.50;;;16.83;58.94
15678;BME280;7939;50.814;6.368;2022-09-17T07:11:02;99817.91;;;16.85;58.44
15678;BME280;7939;50.814;6.368;2022-09-17T07:13:29;99823.03;;;16.87;58.77
15678;BME280;7939;50.814;6.368;2022-09-17T07:15:57;99817.03;;;16.86;58.37
15678;BME280;7939;50.814;6.368;2022-09-17T07:18:24;99811.81;;;16.88;58.22
15678;BME280;7939;50.814;6.368;2022-09-17T07:20:53;99817.91;;;16.85;58.39
15678;BME280;7939;50.814;6.368;2022-09-17T07:23:22;99816.97;;;16.88;58.56
15678;BME280;7939;50.814;6.368;2022-09-17T07:25:51;99810.97;;;16.87;58.75
15678;BME280;7939;50.814;6.368;2022-09-17T07:28:18;99816.97;;;16.88;58.61
15678;BME280;7939;50.814;6.368;2022-09-17T07:30:45;99817.88;;;16.87;58.64
15678;BME280;7939;50.814;6.368;2022-09-17T07:33:11;99814.41;;;16.88;58.62
15678;BME280;7939;50.814;6.368;2022-09-17T07:35:38;99817.88;;;16.87;58.63
15678;BME280;7939;50.814;6.368;2022-09-17T07:38:06;99810.91;;;16.89;58.41
15678;BME280;7939;50.814;6.368;2022-09-17T07:40:32;99815.25;;;16.88;58.63
15678;BME280;7939;50.814;6.368;2022-09-17T07:42:59;99826.47;;;16.87;58.75
15678;BME280;7939;50.814;6.368;2022-09-17T07:45:26;99826.38;;;16.90;58.80
15678;BME280;7939;50.814;6.368;2022-09-17T07:47:52;99827.25;;;16.91;58.82
15678;BME280;7939;50.814;6.368;2022-09-17T07:50:19;99819.44;;;16.92;58.70
15678;BME280;7939;50.814;6.368;2022-09-17T07:52:46;99824.56;;;16.94;59.06
15678;BME280;7939;50.814;6.368;2022-09-17T07:55:14;99828.78;;;16.96;58.94
15678;BME280;7939;50.814;6.368;2022-09-17T07:57:41;99822.78;;;16.96;58.81
15678;BME280;7939;50.814;6.368;2022-09-17T08:00:08;99828.78;;;16.96;58.91
15678;BME280;7939;50.814;6.368;2022-09-17T08:02:35;99833.91;;;16.99;58.96
15678;BME280;7939;50.814;6.368;2022-09-17T08:05:02;99839.91;;;17.00;58.87
15678;BME280;7939;50.814;6.368;2022-09-17T08:07:29;99838.16;;;17.01;58.89
15678;BME280;7939;50.814;6.368;2022-09-17T08:09:55;99842.41;;;17.03;58.76
15678;BME280;7939;50.814;6.368;2022-09-17T08:12:23;99839.78;;;17.05;59.01
15678;BME280;7939;50.814;6.368;2022-09-17T08:14:50;99841.53;;;17.03;58.67
15678;BME280;7939;50.814;6.368;2022-09-17T08:17:16;99850.94;;;17.07;58.94
15678;BME280;7939;50.814;6.368;2022-09-17T08:19:43;99843.97;;;17.09;59.23
15678;BME280;7939;50.814;6.368;2022-09-17T08:22:10;99840.53;;;17.10;58.65
15678;BME280;7939;50.814;6.368;2022-09-17T08:24:36;99833.63;;;17.10;58.80
15678;BME280;7939;50.814;6.368;2022-09-17T08:27:03;99836.16;;;17.12;58.89
15678;BME280;7939;50.814;6.368;2022-09-17T08:29:31;99835.31;;;17.11;58.67
15678;BME280;7939;50.814;6.368;2022-09-17T08:31:58;99831.84;;;17.12;59.15
15678;BME280;7939;50.814;6.368;2022-09-17T08:34:24;99841.25;;;17.15;58.89
15678;BME280;7939;50.814;6.368;2022-09-17T08:36:51;99839.50;;;17.15;58.96
15678;BME280;7939;50.814;6.368;2022-09-17T08:39:18;99848.97;;;17.16;58.77
15678;BME280;7939;50.814;6.368;2022-09-17T08:41:50;99854.13;;;17.16;58.73
15678;BME280;7939;50.814;6.368;2022-09-17T08:44:23;99850.56;;;17.20;58.46
15678;BME280;7939;50.814;6.368;2022-09-17T08:46:57;99855.69;;;17.22;59.00
15678;BME280;7939;50.814;6.368;2022-09-17T08:49:30;99842.78;;;17.22;58.50
15678;BME280;7939;50.814;6.368;2022-09-17T08:55:36;99847.03;;;17.24;58.96
15678;BME280;7939;50.814;6.368;2022-09-17T08:58:27;99837.59;;;17.23;58.20
15678;BME280;7939;50.814;6.368;2022-09-17T09:01:00;99848.66;;;17.27;58.74
15678;BME280;7939;50.814;6.368;2022-09-17T09:03:42;99853.81;;;17.29;58.56
15678;BME280;7939;50.814;6.368;2022-09-17T09:06:14;99846.78;;;17.34;58.68
15678;BME280;7939;50.814;6.368;2022-09-17T09:08:44;99839.00;;;17.35;58.28
15678;BME280;7939;50.814;6.368;2022-09-17T09:11:15;99839.00;;;17.35;58.08
15678;BME280;7939;50.814;6.368;2022-09-17T09:13:45;99850.09;;;17.39;58.37
15678;BME280;7939;50.814;6.368;2022-09-17T09:16:16;99846.53;;;17.43;57.90
15678;BME280;7939;50.814;6.368;2022-09-17T09:18:49;99837.78;;;17.47;57.24
15678;BME280;7939;50.814;6.368;2022-09-17T09:21:24;99848.91;;;17.50;57.28
15678;BME280;7939;50.814;6.368;2022-09-17T09:23:53;99848.97;;;17.49;56.58
15678;BME280;7939;50.814;6.368;2022-09-17T09:26:34;99852.28;;;17.52;57.08
15678;BME280;7939;50.814;6.368;2022-09-17T09:29:04;99843.63;;;17.55;56.85
15678;BME280;7939;50.814;6.368;2022-09-17T09:31:44;99849.59;;;17.57;56.81
15678;BME280;7939;50.814;6.368;2022-09-17T09:34:15;99843.44;;;17.61;56.26
15678;BME280;7939;50.814;6.368;2022-09-17T09:36:42;99843.44;;;17.61;57.05
15678;BME280;7939;50.814;6.368;2022-09-17T09:39:14;99844.38;;;17.59;55.65
15678;BME280;7939;50.814;6.368;2022-09-17T09:41:45;99851.16;;;17.63;56.38
15678;BME280;7939;50.814;6.368;2022-09-17T09:44:14;99851.94;;;17.65;56.67
15678;BME280;7939;50.814;6.368;2022-09-17T09:46:52;99845.25;;;17.58;55.58
15678;BME280;7939;50.814;6.368;2022-09-17T09:49:34;99842.63;;;17.59;55.01
15678;BME280;7939;50.814;6.368;2022-09-17T09:52:15;99839.25;;;17.57;55.76
15678;BME280;7939;50.814;6.368;2022-09-17T09:54:54;99847.09;;;17.54;55.49
15678;BME280;7939;50.814;6.368;2022-09-17T09:57:32;99842.72;;;17.56;55.65
15678;BME280;7939;50.814;6.368;2022-09-17T10:00:24;99844.34;;;17.60;56.39
15678;BME280;7939;50.814;6.368;2022-09-17T10:02:56;99851.94;;;17.65;56.13
15678;BME280;7939;50.814;6.368;2022-09-17T10:05:26;99851.03;;;17.67;56.44
15678;BME280;7939;50.814;6.368;2022-09-17T10:07:52;99850.09;;;17.70;56.63
15678;BME280;7939;50.814;6.368;2022-09-17T10:10:19;99850.91;;;17.73;56.11
15678;BME280;7939;50.814;6.368;2022-09-17T10:12:46;99845.63;;;17.76;56.46
15678;BME280;7939;50.814;6.368;2022-09-17T10:15:23;99842.03;;;17.82;55.88
15678;BME280;7939;50.814;6.368;2022-09-17T10:18:10;99842.13;;;17.79;55.00
15678;BME280;7939;50.814;6.368;2022-09-17T10:20:48;99845.34;;;17.87;56.20
15678;BME280;7939;50.814;6.368;2022-09-17T10:23:14;99844.31;;;17.91;56.23
15678;BME280;7939;50.814;6.368;2022-09-17T10:25:42;99847.75;;;17.93;54.97
15678;BME280;7939;50.814;6.368;2022-09-17T10:31:04;99834.69;;;17.98;54.88
15678;BME280;7939;50.814;6.368;2022-09-17T10:33:35;99848.31;;;18.03;54.25
15678;BME280;7939;50.814;6.368;2022-09-17T10:36:06;99839.63;;;18.05;54.29
15678;BME280;7939;50.814;6.368;2022-09-17T10:38:39;99834.44;;;18.05;54.13
15678;BME280;7939;50.814;6.368;2022-09-17T10:41:12;99820.50;;;18.10;54.24
15678;BME280;7939;50.814;6.368;2022-09-17T10:43:39;99829.09;;;18.12;54.17
15678;BME280;7939;50.814;6.368;2022-09-17T10:46:09;99823.81;;;18.15;53.26
15678;BME280;7939;50.814;6.368;2022-09-17T10:48:40;99815.97;;;18.18;53.72
15678;BME280;7939;50.814;6.368;2022-09-17T10:51:09;99818.50;;;18.19;53.37
15678;BME280;7939;50.814;6.368;2022-09-17T10:53:56;99827.88;;;18.23;53.42
15678;BME280;7939;50.814;6.368;2022-09-17T10:56:27;99817.47;;;18.25;53.74
15678;BME280;7939;50.814;6.368;2022-09-17T10:59:11;99810.50;;;18.27;54.07
15678;BME280;7939;50.814;6.368;2022-09-17T11:01:52;99806.13;;;18.29;54.19
15678;BME280;7939;50.814;6.368;2022-09-17T11:04:35;99803.50;;;18.30;52.99
15678;BME280;7939;50.814;6.368;2022-09-17T11:07:21;99810.38;;;18.31;52.99
15678;BME280;7939;50.814;6.368;2022-09-17T11:09:56;99794.72;;;18.36;52.79
15678;BME280;7939;50.814;6.368;2022-09-17T11:12:38;99800.63;;;18.40;52.13
15678;BME280;7939;50.814;6.368;2022-09-17T11:15:19;99798.03;;;18.40;52.71
15678;BME280;7939;50.814;6.368;2022-09-17T11:18:04;99789.44;;;18.39;52.50
15678;BME280;7939;50.814;6.368;2022-09-17T11:20:46;99793.69;;;18.42;52.64
15678;BME280;7939;50.814;6.368;2022-09-17T11:23:30;99786.66;;;18.45;52.26
15678;BME280;7939;50.814;6.368;2022-09-17T11:26:03;99782.22;;;18.49;52.23
15678;BME280;7939;50.814;6.368;2022-09-17T11:28:44;99785.69;;;18.48;52.09
15678;BME280;7939;50.814;6.368;2022-09-17T11:31:23;99791.69;;;18.50;51.72
15678;BME280;7939;50.814;6.368;2022-09-17T11:34:08;99787.34;;;18.50;51.80
15678;BME280;7939;50.814;6.368;2022-09-17T11:36:45;99780.31;;;18.54;51.17
15678;BME280;7939;50.814;6.368;2022-09-17T11:39:18;99791.53;;;18.54;51.50
15678;BME280;7939;50.814;6.368;2022-09-17T11:41:49;99789.88;;;18.52;51.18
15678;BME280;7939;50.814;6.368;2022-09-17T11:44:23;99784.72;;;18.52;50.68
15678;BME280;7939;50.814;6.368;2022-09-17T11:46:55;99781.22;;;18.53;51.49
15678;BME280;7939;50.814;6.368;2022-09-17T11:49:26;99789.88;;;18.52;51.04
15678;BME280;7939;50.814;6.368;2022-09-17T11:51:58;99805.41;;;18.52;51.57
15678;BME280;7939;50.814;6.368;2022-09-17T11:54:31;99815.94;;;18.46;51.96
15678;BME280;7939;50.814;6.368;2022-09-17T11:57:05;99815.91;;;18.47;53.01
15678;BME280;7939;50.814;6.368;2022-09-17T11:59:38;99814.38;;;18.42;53.83
15678;BME280;7939;50.814;6.368;2022-09-17T12:02:16;99832.44;;;18.43;54.17
15678;BME280;7939;50.814;6.368;2022-09-17T12:04:52;99824.03;;;18.37;54.74
15678;BME280;7939;50.814;6.368;2022-09-17T12:07:27;99832.56;;;18.39;54.72
15678;BME280;7939;50.814;6.368;2022-09-17T12:10:01;99850.69;;;18.39;55.00
15678;BME280;7939;50.814;6.368;2022-09-17T12:12:42;99837.81;;;18.37;55.23
15678;BME280;7939;50.814;6.368;2022-09-17T12:15:16;99824.91;;;18.36;55.23
15678;BME280;7939;50.814;6.368;2022-09-17T12:17:48;99818.09;;;18.33;54.93
15678;BME280;7939;50.814;6.368;2022-09-17T12:20:24;99820.66;;;18.33;55.19
15678;BME280;7939;50.814;6.368;2022-09-17T12:22:55;99809.47;;;18.32;55.38
15678;BME280;7939;50.814;6.368;2022-09-17T12:25:27;99806.94;;;18.31;55.79
15678;BME280;7939;50.814;6.368;2022-09-17T12:28:00;99814.75;;;18.29;56.10
15678;BME280;7939;50.814;6.368;2022-09-17T12:30:31;99801.91;;;18.26;56.33
15678;BME280;7939;50.814;6.368;2022-09-17T12:33:15;99806.19;;;18.27;56.12
15678;BME280;7939;50.814;6.368;2022-09-17T12:36:02;99799.31;;;18.26;56.07
15678;BME280;7939;50.814;6.368;2022-09-17T12:38:48;99795.84;;;18.27;56.29
15678;BME280;7939;50.814;6.368;2022-09-17T12:41:23;99790.72;;;18.26;56.78
15678;BME280;7939;50.814;6.368;2022-09-17T12:44:06;99802.75;;;18.27;56.42
15678;BME280;7939;50.814;6.368;2022-09-17T12:46:52;99802.69;;;18.28;56.80
15678;BME280;7939;50.814;6.368;2022-09-17T12:52:27;99795.88;;;18.26;57.06
15678;BME280;7939;50.814;6.368;2022-09-17T12:55:19;99803.69;;;18.24;56.66
15678;BME280;7939;50.814;6.368;2022-09-17T12:57:54;99811.47;;;18.24;56.33
15678;BME280;7939;50.814;6.368;2022-09-17T13:00:22;99816.63;;;18.24;56.36
15678;BME280;7939;50.814;6.368;2022-09-17T13:02:54;99817.56;;;18.22;56.83
15678;BME280;7939;50.814;6.368;2022-09-17T13:05:38;99821.88;;;18.21;56.79
15678;BME280;7939;50.814;6.368;2022-09-17T13:08:33;99822.72;;;18.22;57.03
15678;BME280;7939;50.814;6.368;2022-09-17T13:11:26;99795.19;;;18.21;56.95
15678;BME280;7939;50.814;6.368;2022-09-17T13:13:59;99801.34;;;18.17;56.36
15678;BME280;7939;50.814;6.368;2022-09-17T13:16:35;99804.69;;;18.20;56.42
15678;BME280;7939;50.814;6.368;2022-09-17T13:19:11;99798.66;;;18.20;56.46
15678;BME280;7939;50.814;6.368;2022-09-17T13:21:50;99798.66;;;18.20;56.60
15678;BME280;7939;50.814;6.368;2022-09-17T13:24:20;99788.31;;;18.20;56.84
15678;BME280;7939;50.814;6.368;2022-09-17T13:26:50;99792.72;;;18.16;56.58
15678;BME280;7939;50.814;6.368;2022-09-17T13:32:44;99779.00;;;18.14;56.45
15678;BME280;7939;50.814;6.368;2022-09-17T13:38:10;99791.09;;;18.14;56.90
15678;BME280;7939;50.814;6.368;2022-09-17T13:40:38;99792.84;;;18.13;56.56
15678;BME280;7939;50.814;6.368;2022-09-17T13:43:07;99786.81;;;18.13;57.22
15678;BME280;7939;50.814;6.368;2022-09-17T13:46:05;99798.91;;;18.12;56.91
15678;BME280;7939;50.814;6.368;2022-09-17T13:48:44;99788.63;;;18.11;56.29